sensor_id;sensor_type;location;lat;lon;timestamp;P1;durP1;ratioP1;P2;durP2;ratioP2
74229;SDS011;62589;12.568;99.958;2022-08-11T00:00:03;0.88;;;0.40;;
74229;SDS011;62589;12.568;99.958;2022-08-11T00:02:36;2.03;;;0.50;;
74229;SDS011;62589;12.568;99.958;2022-08-11T00:05:10;3.45;;;0.65;;
74229;SDS011;62589;12.568;99.958;2022-08-11T00:07:43;3.22;;;0.77;;
74229;SDS011;62589;12.568;99.958;2022-08-11T00:10:14;3.17;;;0.63;;
74229;SDS011;62589;12.568;99.958;2022-08-11T00:12:45;2.15;;;0.57;;
74229;SDS011;62589;12.568;99.958;2022-08-11T00:15:41;4.07;;;0.60;;
74229;SDS011;62589;12.568;99.958;2022-08-11T00:18:09;2.22;;;0.47;;
74229;SDS011;62589;12.568;99.958;2022-08-11T00:20:39;1.70;;;0.52;;
74229;SDS011;62589;12.568;99.958;2022-08-11T00:23:10;2.10;;;0.57;;
74229;SDS011;62589;12.568;99.958;2022-08-11T00:25:45;2.67;;;0.50;;
74229;SDS011;62589;12.568;99.958;2022-08-11T00:28:24;2.20;;;0.60;;
74229;SDS011;62589;12.568;99.958;2022-08-11T00:31:04;5.13;;;1.20;;
74229;SDS011;62589;12.568;99.958;2022-08-11T00:33:38;2.25;;;0.80;;
74229;SDS011;62589;12.568;99.958;2022-08-11T00:36:08;3.05;;;0.90;;
74229;SDS011;62589;12.568;99.958;2022-08-11T00:38:40;2.63;;;0.65;;
74229;SDS011;62589;12.568;99.958;2022-08-11T00:44:04;2.55;;;0.80;;
74229;SDS011;62589;12.568;99.958;2022-08-11T00:49:44;1.45;;;0.73;;
74229;SDS011;62589;12.568;99.958;2022-08-11T00:55:38;2.53;;;0.75;;
74229;SDS011;62589;12.568;99.958;2022-08-11T01:01:33;3.47;;;1.90;;
74229;SDS011;62589;12.568;99.958;2022-08-11T01:04:36;6.72;;;1.40;;
74229;SDS011;62589;12.568;99.958;2022-08-11T01:07:30;4.05;;;1.73;;
74229;SDS011;62589;12.568;99.958;2022-08-11T01:10:43;2.78;;;1.48;;
74229;SDS011;62589;12.568;99.958;2022-08-11T01:22:11;2.88;;;1.98;;
74229;SDS011;62589;12.568;99.958;2022-08-11T01:25:17;4.10;;;2.00;;
74229;SDS011;62589;12.568;99.958;2022-08-11T01:43:15;5.18;;;2.58;;
74229;SDS011;62589;12.568;99.958;2022-08-11T01:52:04;3.75;;;2.00;;
74229;SDS011;62589;12.568;99.958;2022-08-11T01:57:41;3.08;;;0.70;;
74229;SDS011;62589;12.568;99.958;2022-08-11T02:00:17;1.67;;;0.55;;
74229;SDS011;62589;12.568;99.958;2022-08-11T02:02:52;3.35;;;0.65;;
74229;SDS011;62589;12.568;99.958;2022-08-11T02:11:29;2.25;;;0.57;;
74229;SDS011;62589;12.568;99.958;2022-08-11T02:25:45;2.00;;;0.50;;
74229;SDS011;62589;12.568;99.958;2022-08-11T02:28:26;2.65;;;0.60;;
74229;SDS011;62589;12.568;99.958;2022-08-11T02:37:09;1.77;;;0.50;;
74229;SDS011;62589;12.568;99.958;2022-08-11T02:39:46;1.73;;;0.55;;
74229;SDS011;62589;12.568;99.958;2022-08-11T02:42:52;1.45;;;0.30;;
74229;SDS011;62589;12.568;99.958;2022-08-11T02:45:52;1.58;;;0.55;;
74229;SDS011;62589;12.568;99.958;2022-08-11T02:48:47;1.92;;;0.35;;
74229;SDS011;62589;12.568;99.958;2022-08-11T02:51:56;1.85;;;0.73;;
74229;SDS011;62589;12.568;99.958;2022-08-11T02:54:35;1.20;;;0.20;;
74229;SDS011;62589;12.568;99.958;2022-08-11T02:57:12;1.77;;;0.32;;
74229;SDS011;62589;12.568;99.958;2022-08-11T02:59:55;1.05;;;0.22;;
74229;SDS011;62589;12.568;99.958;2022-08-11T03:23:52;1.45;;;0.40;;
74229;SDS011;62589;12.568;99.958;2022-08-11T03:29:34;2.72;;;0.52;;
74229;SDS011;62589;12.568;99.958;2022-08-11T03:32:23;1.10;;;0.25;;
74229;SDS011;62589;12.568;99.958;2022-08-11T03:34:55;3.05;;;0.43;;
74229;SDS011;62589;12.568;99.958;2022-08-11T03:40:19;3.28;;;0.60;;
74229;SDS011;62589;12.568;99.958;2022-08-11T03:46:14;2.95;;;0.50;;
74229;SDS011;62589;12.568;99.958;2022-08-11T04:01:04;1.42;;;0.47;;
74229;SDS011;62589;12.568;99.958;2022-08-11T04:15:44;1.80;;;0.63;;
74229;SDS011;62589;12.568;99.958;2022-08-11T04:18:31;2.92;;;0.70;;
74229;SDS011;62589;12.568;99.958;2022-08-11T04:30:13;2.05;;;0.30;;
74229;SDS011;62589;12.568;99.958;2022-08-11T04:35:57;1.88;;;0.40;;
74229;SDS011;62589;12.568;99.958;2022-08-11T04:39:23;2.55;;;0.57;;
74229;SDS011;62589;12.568;99.958;2022-08-11T04:42:26;1.80;;;0.30;;
74229;SDS011;62589;12.568;99.958;2022-08-11T04:45:25;1.83;;;0.30;;
74229;SDS011;62589;12.568;99.958;2022-08-11T04:57:50;1.27;;;0.25;;
74229;SDS011;62589;12.568;99.958;2022-08-11T05:00:52;1.10;;;0.30;;
74229;SDS011;62589;12.568;99.958;2022-08-11T05:12:56;0.80;;;0.40;;
74229;SDS011;62589;12.568;99.958;2022-08-11T05:15:52;1.27;;;0.00;;
74229;SDS011;62589;12.568;99.958;2022-08-11T05:18:32;0.65;;;0.10;;
74229;SDS011;62589;12.568;99.958;2022-08-11T05:21:11;0.90;;;0.20;;
74229;SDS011;62589;12.568;99.958;2022-08-11T05:23:55;1.05;;;0.10;;
74229;SDS011;62589;12.568;99.958;2022-08-11T05:26:43;0.55;;;0.10;;
74229;SDS011;62589;12.568;99.958;2022-08-11T05:32:19;1.38;;;0.10;;
74229;SDS011;62589;12.568;99.958;2022-08-11T05:35:00;1.17;;;0.10;;
74229;SDS011;62589;12.568;99.958;2022-08-11T05:37:33;1.20;;;0.30;;
74229;SDS011;62589;12.568;99.958;2022-08-11T05:40:11;0.60;;;0.10;;
74229;SDS011;62589;12.568;99.958;2022-08-11T05:42:54;0.65;;;0.10;;
74229;SDS011;62589;12.568;99.958;2022-08-11T05:45:34;1.25;;;0.40;;
74229;SDS011;62589;12.568;99.958;2022-08-11T05:48:13;1.38;;;0.38;;
74229;SDS011;62589;12.568;99.958;2022-08-11T05:50:56;1.08;;;0.20;;
74229;SDS011;62589;12.568;99.958;2022-08-11T05:53:45;2.92;;;0.30;;
74229;SDS011;62589;12.568;99.958;2022-08-11T05:56:33;1.08;;;0.10;;
74229;SDS011;62589;12.568;99.958;2022-08-11T05:59:11;0.63;;;0.10;;
74229;SDS011;62589;12.568;99.958;2022-08-11T06:01:39;1.20;;;0.10;;
74229;SDS011;62589;12.568;99.958;2022-08-11T06:04:11;2.15;;;0.35;;
74229;SDS011;62589;12.568;99.958;2022-08-11T06:06:46;1.33;;;0.30;;
74229;SDS011;62589;12.568;99.958;2022-08-11T06:09:31;1.58;;;0.30;;
74229;SDS011;62589;12.568;99.958;2022-08-11T06:12:05;1.27;;;0.40;;
74229;SDS011;62589;12.568;99.958;2022-08-11T06:14:43;1.98;;;0.40;;
74229;SDS011;62589;12.568;99.958;2022-08-11T06:17:11;1.58;;;0.20;;
74229;SDS011;62589;12.568;99.958;2022-08-11T06:19:41;1.33;;;0.30;;
74229;SDS011;62589;12.568;99.958;2022-08-11T06:22:12;0.98;;;0.20;;
74229;SDS011;62589;12.568;99.958;2022-08-11T06:24:56;2.88;;;0.60;;
74229;SDS011;62589;12.568;99.958;2022-08-11T06:27:25;1.20;;;0.30;;
74229;SDS011;62589;12.568;99.958;2022-08-11T06:29:55;2.58;;;0.35;;
74229;SDS011;62589;12.568;99.958;2022-08-11T06:32:24;1.15;;;0.30;;
74229;SDS011;62589;12.568;99.958;2022-08-11T06:43:32;1.42;;;0.22;;
74229;SDS011;62589;12.568;99.958;2022-08-11T06:46:14;2.78;;;0.17;;
74229;SDS011;62589;12.568;99.958;2022-08-11T06:48:49;2.35;;;0.20;;
74229;SDS011;62589;12.568;99.958;2022-08-11T06:51:19;1.00;;;0.20;;
74229;SDS011;62589;12.568;99.958;2022-08-11T06:53:48;1.85;;;0.40;;
74229;SDS011;62589;12.568;99.958;2022-08-11T06:56:31;0.75;;;0.20;;
74229;SDS011;62589;12.568;99.958;2022-08-11T06:59:13;1.55;;;0.40;;
74229;SDS011;62589;12.568;99.958;2022-08-11T07:04:59;2.90;;;0.15;;
74229;SDS011;62589;12.568;99.958;2022-08-11T07:13:55;2.35;;;0.52;;
74229;SDS011;62589;12.568;99.958;2022-08-11T07:16:40;2.78;;;0.50;;
74229;SDS011;62589;12.568;99.958;2022-08-11T07:19:12;2.28;;;0.50;;
74229;SDS011;62589;12.568;99.958;2022-08-11T07:21:56;3.03;;;0.45;;
74229;SDS011;62589;12.568;99.958;2022-08-11T07:24:47;3.33;;;0.40;;
74229;SDS011;62589;12.568;99.958;2022-08-11T07:27:36;2.50;;;0.47;;
74229;SDS011;62589;12.568;99.958;2022-08-11T07:30:28;2.20;;;0.40;;
74229;SDS011;62589;12.568;99.958;2022-08-11T07:32:58;1.70;;;0.45;;
74229;SDS011;62589;12.568;99.958;2022-08-11T07:35:30;3.22;;;0.60;;
74229;SDS011;62589;12.568;99.958;2022-08-11T07:38:01;1.60;;;0.30;;
74229;SDS011;62589;12.568;99.958;2022-08-11T07:40:30;3.28;;;0.73;;
74229;SDS011;62589;12.568;99.958;2022-08-11T07:42:58;7.05;;;0.73;;
74229;SDS011;62589;12.568;99.958;2022-08-11T07:45:26;1.90;;;0.25;;
74229;SDS011;62589;12.568;99.958;2022-08-11T07:48:06;4.38;;;1.00;;
74229;SDS011;62589;12.568;99.958;2022-08-11T07:50:46;2.30;;;0.40;;
74229;SDS011;62589;12.568;99.958;2022-08-11T07:53:25;3.05;;;0.60;;
74229;SDS011;62589;12.568;99.958;2022-08-11T07:55:54;1.85;;;0.57;;
74229;SDS011;62589;12.568;99.958;2022-08-11T07:58:24;3.15;;;0.63;;
74229;SDS011;62589;12.568;99.958;2022-08-11T08:01:02;1.95;;;0.82;;
74229;SDS011;62589;12.568;99.958;2022-08-11T08:03:42;2.08;;;0.60;;
74229;SDS011;62589;12.568;99.958;2022-08-11T08:06:24;2.22;;;0.40;;
74229;SDS011;62589;12.568;99.958;2022-08-11T08:09:03;4.63;;;0.70;;
74229;SDS011;62589;12.568;99.958;2022-08-11T08:11:44;1.77;;;0.55;;
74229;SDS011;62589;12.568;99.958;2022-08-11T08:14:23;2.80;;;0.80;;
74229;SDS011;62589;12.568;99.958;2022-08-11T08:17:02;2.35;;;0.80;;
74229;SDS011;62589;12.568;99.958;2022-08-11T08:19:42;1.73;;;0.43;;
74229;SDS011;62589;12.568;99.958;2022-08-11T08:22:15;2.15;;;0.50;;
74229;SDS011;62589;12.568;99.958;2022-08-11T08:24:44;2.17;;;0.70;;
74229;SDS011;62589;12.568;99.958;2022-08-11T08:27:12;3.60;;;0.73;;
74229;SDS011;62589;12.568;99.958;2022-08-11T08:29:40;3.97;;;0.98;;
74229;SDS011;62589;12.568;99.958;2022-08-11T08:32:20;4.35;;;1.00;;
74229;SDS011;62589;12.568;99.958;2022-08-11T08:34:48;4.13;;;0.82;;
74229;SDS011;62589;12.568;99.958;2022-08-11T08:37:20;3.10;;;0.80;;
74229;SDS011;62589;12.568;99.958;2022-08-11T08:39:49;2.78;;;0.77;;
74229;SDS011;62589;12.568;99.958;2022-08-11T08:42:17;2.95;;;0.70;;
74229;SDS011;62589;12.568;99.958;2022-08-11T08:44:51;2.23;;;0.97;;
74229;SDS011;62589;12.568;99.958;2022-08-11T08:47:25;2.67;;;0.77;;
74229;SDS011;62589;12.568;99.958;2022-08-11T08:49:58;2.53;;;0.60;;
74229;SDS011;62589;12.568;99.958;2022-08-11T08:52:33;3.15;;;0.80;;
74229;SDS011;62589;12.568;99.958;2022-08-11T08:55:06;3.50;;;0.90;;
74229;SDS011;62589;12.568;99.958;2022-08-11T08:57:37;3.50;;;1.15;;
74229;SDS011;62589;12.568;99.958;2022-08-11T09:00:06;2.67;;;0.80;;
74229;SDS011;62589;12.568;99.958;2022-08-11T09:02:34;1.60;;;0.90;;
74229;SDS011;62589;12.568;99.958;2022-08-11T09:05:02;2.03;;;0.80;;
74229;SDS011;62589;12.568;99.958;2022-08-11T09:07:32;2.63;;;0.57;;
74229;SDS011;62589;12.568;99.958;2022-08-11T09:09:59;4.85;;;0.63;;
74229;SDS011;62589;12.568;99.958;2022-08-11T09:12:27;2.33;;;0.65;;
74229;SDS011;62589;12.568;99.958;2022-08-11T09:14:56;2.30;;;0.75;;
74229;SDS011;62589;12.568;99.958;2022-08-11T09:20:05;5.57;;;0.93;;
74229;SDS011;62589;12.568;99.958;2022-08-11T09:22:34;3.42;;;1.40;;
74229;SDS011;62589;12.568;99.958;2022-08-11T09:25:15;2.80;;;1.23;;
74229;SDS011;62589;12.568;99.958;2022-08-11T09:27:54;2.58;;;1.17;;
74229;SDS011;62589;12.568;99.958;2022-08-11T09:30:22;2.53;;;0.75;;
74229;SDS011;62589;12.568;99.958;2022-08-11T09:32:54;2.80;;;1.13;;
74229;SDS011;62589;12.568;99.958;2022-08-11T09:35:28;4.20;;;1.70;;
74229;SDS011;62589;12.568;99.958;2022-08-11T09:40:36;2.00;;;0.95;;
74229;SDS011;62589;12.568;99.958;2022-08-11T09:43:04;3.72;;;1.65;;
74229;SDS011;62589;12.568;99.958;2022-08-11T09:45:47;10.65;;;2.45;;
74229;SDS011;62589;12.568;99.958;2022-08-11T09:48:19;4.43;;;1.63;;
74229;SDS011;62589;12.568;99.958;2022-08-11T09:50:48;4.07;;;1.20;;
74229;SDS011;62589;12.568;99.958;2022-08-11T09:53:17;1.77;;;0.75;;
74229;SDS011;62589;12.568;99.958;2022-08-11T09:55:45;1.85;;;0.52;;
74229;SDS011;62589;12.568;99.958;2022-08-11T09:58:14;2.55;;;0.70;;
74229;SDS011;62589;12.568;99.958;2022-08-11T10:00:43;1.55;;;0.50;;
74229;SDS011;62589;12.568;99.958;2022-08-11T10:03:14;1.85;;;0.50;;
74229;SDS011;62589;12.568;99.958;2022-08-11T10:05:43;4.15;;;0.40;;
74229;SDS011;62589;12.568;99.958;2022-08-11T10:08:25;2.08;;;0.22;;
74229;SDS011;62589;12.568;99.958;2022-08-11T10:10:54;1.17;;;0.40;;
74229;SDS011;62589;12.568;99.958;2022-08-11T10:13:24;1.45;;;0.38;;
74229;SDS011;62589;12.568;99.958;2022-08-11T10:15:59;2.28;;;0.40;;
74229;SDS011;62589;12.568;99.958;2022-08-11T10:18:34;1.13;;;0.22;;
74229;SDS011;62589;12.568;99.958;2022-08-11T10:24:07;0.25;;;0.10;;
74229;SDS011;62589;12.568;99.958;2022-08-11T10:26:47;1.23;;;0.30;;
74229;SDS011;62589;12.568;99.958;2022-08-11T10:29:36;0.95;;;0.40;;
74229;SDS011;62589;12.568;99.958;2022-08-11T10:32:18;2.05;;;0.43;;
74229;SDS011;62589;12.568;99.958;2022-08-11T10:35:04;1.30;;;0.30;;
74229;SDS011;62589;12.568;99.958;2022-08-11T10:37:33;1.77;;;0.30;;
74229;SDS011;62589;12.568;99.958;2022-08-11T10:40:03;0.88;;;0.30;;
74229;SDS011;62589;12.568;99.958;2022-08-11T10:42:31;1.55;;;0.50;;
74229;SDS011;62589;12.568;99.958;2022-08-11T10:45:10;1.35;;;0.45;;
74229;SDS011;62589;12.568;99.958;2022-08-11T10:47:48;0.50;;;0.20;;
74229;SDS011;62589;12.568;99.958;2022-08-11T10:50:15;1.17;;;0.20;;
74229;SDS011;62589;12.568;99.958;2022-08-11T10:52:53;0.93;;;0.25;;
74229;SDS011;62589;12.568;99.958;2022-08-11T10:55:36;1.20;;;0.40;;
74229;SDS011;62589;12.568;99.958;2022-08-11T10:58:15;1.73;;;0.50;;
74229;SDS011;62589;12.568;99.958;2022-08-11T11:00:55;1.23;;;0.30;;
74229;SDS011;62589;12.568;99.958;2022-08-11T11:03:27;1.27;;;0.15;;
74229;SDS011;62589;12.568;99.958;2022-08-11T11:05:56;1.27;;;0.30;;
74229;SDS011;62589;12.568;99.958;2022-08-11T11:08:37;1.88;;;0.10;;
74229;SDS011;62589;12.568;99.958;2022-08-11T11:11:23;2.15;;;0.20;;
74229;SDS011;62589;12.568;99.958;2022-08-11T11:16:40;2.15;;;0.30;;
74229;SDS011;62589;12.568;99.958;2022-08-11T11:19:20;2.55;;;0.35;;
74229;SDS011;62589;12.568;99.958;2022-08-11T11:21:51;2.15;;;0.30;;
74229;SDS011;62589;12.568;99.958;2022-08-11T11:24:41;0.55;;;0.17;;
74229;SDS011;62589;12.568;99.958;2022-08-11T11:27:31;2.22;;;0.25;;
74229;SDS011;62589;12.568;99.958;2022-08-11T11:30:11;1.30;;;0.38;;
74229;SDS011;62589;12.568;99.958;2022-08-11T11:35:54;2.88;;;0.50;;
74229;SDS011;62589;12.568;99.958;2022-08-11T11:41:08;1.27;;;0.60;;
74229;SDS011;62589;12.568;99.958;2022-08-11T11:43:47;3.60;;;0.80;;
74229;SDS011;62589;12.568;99.958;2022-08-11T11:46:15;1.40;;;0.40;;
74229;SDS011;62589;12.568;99.958;2022-08-11T11:48:44;1.58;;;0.52;;
74229;SDS011;62589;12.568;99.958;2022-08-11T11:51:12;1.92;;;0.90;;
74229;SDS011;62589;12.568;99.958;2022-08-11T11:53:42;2.83;;;1.08;;
74229;SDS011;62589;12.568;99.958;2022-08-11T11:56:12;1.55;;;0.65;;
74229;SDS011;62589;12.568;99.958;2022-08-11T11:58:40;3.55;;;0.77;;
74229;SDS011;62589;12.568;99.958;2022-08-11T12:01:20;2.15;;;0.70;;
74229;SDS011;62589;12.568;99.958;2022-08-11T12:03:50;1.17;;;0.50;;
74229;SDS011;62589;12.568;99.958;2022-08-11T12:06:20;2.97;;;0.70;;
74229;SDS011;62589;12.568;99.958;2022-08-11T12:08:49;1.75;;;0.77;;
74229;SDS011;62589;12.568;99.958;2022-08-11T12:11:19;2.38;;;0.77;;
74229;SDS011;62589;12.568;99.958;2022-08-11T12:14:02;5.20;;;0.82;;
74229;SDS011;62589;12.568;99.958;2022-08-11T12:16:31;3.60;;;1.10;;
74229;SDS011;62589;12.568;99.958;2022-08-11T12:19:03;5.70;;;1.00;;
74229;SDS011;62589;12.568;99.958;2022-08-11T12:21:36;3.47;;;0.75;;
74229;SDS011;62589;12.568;99.958;2022-08-11T12:24:16;2.35;;;0.60;;
74229;SDS011;62589;12.568;99.958;2022-08-11T12:26:55;3.70;;;0.70;;
74229;SDS011;62589;12.568;99.958;2022-08-11T12:29:35;2.17;;;0.50;;
74229;SDS011;62589;12.568;99.958;2022-08-11T12:32:03;2.50;;;0.90;;
74229;SDS011;62589;12.568;99.958;2022-08-11T12:34:33;5.65;;;0.80;;
74229;SDS011;62589;12.568;99.958;2022-08-11T12:37:01;1.33;;;0.55;;
74229;SDS011;62589;12.568;99.958;2022-08-11T12:39:38;1.77;;;0.60;;
74229;SDS011;62589;12.568;99.958;2022-08-11T12:42:27;3.35;;;0.82;;
74229;SDS011;62589;12.568;99.958;2022-08-11T12:45:11;2.10;;;0.80;;
74229;SDS011;62589;12.568;99.958;2022-08-11T12:47:53;3.25;;;0.60;;
74229;SDS011;62589;12.568;99.958;2022-08-11T12:50:49;3.20;;;0.85;;
74229;SDS011;62589;12.568;99.958;2022-08-11T12:53:32;3.20;;;0.65;;
74229;SDS011;62589;12.568;99.958;2022-08-11T12:56:03;2.65;;;0.82;;
74229;SDS011;62589;12.568;99.958;2022-08-11T12:58:43;2.63;;;1.02;;
74229;SDS011;62589;12.568;99.958;2022-08-11T13:01:14;3.03;;;1.10;;
74229;SDS011;62589;12.568;99.958;2022-08-11T13:03:53;3.58;;;1.35;;
74229;SDS011;62589;12.568;99.958;2022-08-11T13:06:32;3.65;;;1.35;;
74229;SDS011;62589;12.568;99.958;2022-08-11T13:09:02;3.50;;;2.08;;
74229;SDS011;62589;12.568;99.958;2022-08-11T13:11:30;3.75;;;1.48;;
74229;SDS011;62589;12.568;99.958;2022-08-11T13:14:12;5.63;;;1.67;;
74229;SDS011;62589;12.568;99.958;2022-08-11T13:16:41;3.05;;;1.20;;
74229;SDS011;62589;12.568;99.958;2022-08-11T13:19:22;2.78;;;1.30;;
74229;SDS011;62589;12.568;99.958;2022-08-11T13:21:49;3.78;;;1.38;;
74229;SDS011;62589;12.568;99.958;2022-08-11T13:24:18;4.43;;;1.40;;
74229;SDS011;62589;12.568;99.958;2022-08-11T13:26:47;4.35;;;1.60;;
74229;SDS011;62589;12.568;99.958;2022-08-11T13:29:17;3.35;;;1.25;;
74229;SDS011;62589;12.568;99.958;2022-08-11T13:31:45;4.15;;;1.38;;
74229;SDS011;62589;12.568;99.958;2022-08-11T13:34:14;2.85;;;1.40;;
74229;SDS011;62589;12.568;99.958;2022-08-11T13:36:42;3.53;;;1.58;;
74229;SDS011;62589;12.568;99.958;2022-08-11T13:39:10;4.22;;;1.60;;
74229;SDS011;62589;12.568;99.958;2022-08-11T13:41:39;4.47;;;1.85;;
74229;SDS011;62589;12.568;99.958;2022-08-11T13:44:10;7.75;;;2.13;;
74229;SDS011;62589;12.568;99.958;2022-08-11T13:46:39;6.60;;;1.63;;
74229;SDS011;62589;12.568;99.958;2022-08-11T13:49:08;4.93;;;1.48;;
74229;SDS011;62589;12.568;99.958;2022-08-11T13:51:36;3.40;;;1.33;;
74229;SDS011;62589;12.568;99.958;2022-08-11T13:56:52;3.20;;;1.42;;
74229;SDS011;62589;12.568;99.958;2022-08-11T13:59:21;1.83;;;0.77;;
74229;SDS011;62589;12.568;99.958;2022-08-11T14:01:52;4.57;;;1.38;;
74229;SDS011;62589;12.568;99.958;2022-08-11T14:04:29;3.90;;;1.50;;
74229;SDS011;62589;12.568;99.958;2022-08-11T14:07:01;3.47;;;1.00;;
74229;SDS011;62589;12.568;99.958;2022-08-11T14:09:33;3.10;;;1.23;;
74229;SDS011;62589;12.568;99.958;2022-08-11T14:12:05;4.38;;;1.20;;
74229;SDS011;62589;12.568;99.958;2022-08-11T14:15:09;4.30;;;1.38;;
74229;SDS011;62589;12.568;99.958;2022-08-11T14:17:45;3.92;;;1.20;;
74229;SDS011;62589;12.568;99.958;2022-08-11T14:20:17;4.82;;;1.38;;
74229;SDS011;62589;12.568;99.958;2022-08-11T14:22:45;4.20;;;1.20;;
74229;SDS011;62589;12.568;99.958;2022-08-11T14:25:14;6.80;;;1.02;;
74229;SDS011;62589;12.568;99.958;2022-08-11T14:27:44;5.78;;;1.23;;
74229;SDS011;62589;12.568;99.958;2022-08-11T14:30:13;4.28;;;1.30;;
74229;SDS011;62589;12.568;99.958;2022-08-11T14:32:52;1.88;;;0.80;;
74229;SDS011;62589;12.568;99.958;2022-08-11T14:35:20;4.75;;;1.08;;
74229;SDS011;62589;12.568;99.958;2022-08-11T14:37:47;9.18;;;1.35;;
74229;SDS011;62589;12.568;99.958;2022-08-11T14:40:14;2.72;;;1.27;;
74229;SDS011;62589;12.568;99.958;2022-08-11T14:42:53;4.35;;;0.95;;
74229;SDS011;62589;12.568;99.958;2022-08-11T14:45:39;2.45;;;0.85;;
74229;SDS011;62589;12.568;99.958;2022-08-11T14:48:18;6.50;;;1.35;;
74229;SDS011;62589;12.568;99.958;2022-08-11T14:50:45;3.63;;;1.30;;
74229;SDS011;62589;12.568;99.958;2022-08-11T14:53:12;5.50;;;1.48;;
74229;SDS011;62589;12.568;99.958;2022-08-11T14:55:40;3.25;;;1.48;;
74229;SDS011;62589;12.568;99.958;2022-08-11T14:58:22;3.13;;;1.13;;
74229;SDS011;62589;12.568;99.958;2022-08-11T15:00:55;2.47;;;1.17;;
74229;SDS011;62589;12.568;99.958;2022-08-11T15:03:23;4.78;;;1.30;;
74229;SDS011;62589;12.568;99.958;2022-08-11T15:06:01;3.72;;;1.58;;
74229;SDS011;62589;12.568;99.958;2022-08-11T15:08:30;3.45;;;1.40;;
74229;SDS011;62589;12.568;99.958;2022-08-11T15:11:10;3.58;;;1.65;;
74229;SDS011;62589;12.568;99.958;2022-08-11T15:13:58;4.32;;;1.20;;
74229;SDS011;62589;12.568;99.958;2022-08-11T15:16:26;4.70;;;1.60;;
74229;SDS011;62589;12.568;99.958;2022-08-11T15:19:05;7.47;;;1.80;;
74229;SDS011;62589;12.568;99.958;2022-08-11T15:21:32;5.43;;;1.73;;
74229;SDS011;62589;12.568;99.958;2022-08-11T15:24:10;4.97;;;1.33;;
74229;SDS011;62589;12.568;99.958;2022-08-11T15:26:48;3.65;;;1.77;;
74229;SDS011;62589;12.568;99.958;2022-08-11T15:29:29;5.50;;;1.83;;
74229;SDS011;62589;12.568;99.958;2022-08-11T15:32:10;5.93;;;2.30;;
74229;SDS011;62589;12.568;99.958;2022-08-11T15:34:59;6.47;;;1.70;;
74229;SDS011;62589;12.568;99.958;2022-08-11T15:37:40;4.18;;;1.70;;
74229;SDS011;62589;12.568;99.958;2022-08-11T15:40:18;4.10;;;1.15;;
74229;SDS011;62589;12.568;99.958;2022-08-11T15:43:15;4.38;;;1.67;;
74229;SDS011;62589;12.568;99.958;2022-08-11T15:45:58;7.68;;;1.77;;
74229;SDS011;62589;12.568;99.958;2022-08-11T15:48:35;4.05;;;1.25;;
74229;SDS011;62589;12.568;99.958;2022-08-11T15:51:21;3.35;;;1.00;;
74229;SDS011;62589;12.568;99.958;2022-08-11T15:54:04;3.80;;;1.00;;
74229;SDS011;62589;12.568;99.958;2022-08-11T15:56:38;4.57;;;1.35;;
74229;SDS011;62589;12.568;99.958;2022-08-11T15:59:07;2.67;;;0.90;;
74229;SDS011;62589;12.568;99.958;2022-08-11T16:01:48;3.38;;;1.08;;
74229;SDS011;62589;12.568;99.958;2022-08-11T16:04:29;6.63;;;1.20;;
74229;SDS011;62589;12.568;99.958;2022-08-11T16:06:59;2.75;;;1.05;;
74229;SDS011;62589;12.568;99.958;2022-08-11T16:09:34;1.70;;;0.80;;
74229;SDS011;62589;12.568;99.958;2022-08-11T16:12:05;2.60;;;0.90;;
74229;SDS011;62589;12.568;99.958;2022-08-11T16:14:36;6.07;;;1.30;;
74229;SDS011;62589;12.568;99.958;2022-08-11T16:17:17;4.47;;;1.20;;
74229;SDS011;62589;12.568;99.958;2022-08-11T16:19:47;6.70;;;1.50;;
74229;SDS011;62589;12.568;99.958;2022-08-11T16:22:18;4.72;;;1.23;;
74229;SDS011;62589;12.568;99.958;2022-08-11T16:25:05;3.75;;;1.02;;
74229;SDS011;62589;12.568;99.958;2022-08-11T16:27:39;4.35;;;1.15;;
74229;SDS011;62589;12.568;99.958;2022-08-11T16:30:08;4.30;;;1.33;;
74229;SDS011;62589;12.568;99.958;2022-08-11T16:32:37;5.72;;;1.48;;
74229;SDS011;62589;12.568;99.958;2022-08-11T16:35:06;3.28;;;0.93;;
74229;SDS011;62589;12.568;99.958;2022-08-11T16:37:49;3.40;;;1.00;;
74229;SDS011;62589;12.568;99.958;2022-08-11T16:40:30;4.18;;;1.00;;
74229;SDS011;62589;12.568;99.958;2022-08-11T16:42:58;2.45;;;0.88;;
74229;SDS011;62589;12.568;99.958;2022-08-11T16:45:38;2.28;;;0.73;;
74229;SDS011;62589;12.568;99.958;2022-08-11T16:48:17;4.72;;;1.00;;
74229;SDS011;62589;12.568;99.958;2022-08-11T16:50:46;5.38;;;0.93;;
74229;SDS011;62589;12.568;99.958;2022-08-11T16:53:13;4.40;;;0.93;;
74229;SDS011;62589;12.568;99.958;2022-08-11T16:55:42;3.60;;;1.02;;
74229;SDS011;62589;12.568;99.958;2022-08-11T16:58:12;3.63;;;0.63;;
74229;SDS011;62589;12.568;99.958;2022-08-11T17:00:51;3.40;;;0.77;;
74229;SDS011;62589;12.568;99.958;2022-08-11T17:03:18;3.78;;;1.00;;
74229;SDS011;62589;12.568;99.958;2022-08-11T17:06:05;4.10;;;1.10;;
74229;SDS011;62589;12.568;99.958;2022-08-11T17:08:47;2.85;;;0.93;;
74229;SDS011;62589;12.568;99.958;2022-08-11T17:11:30;5.90;;;1.42;;
74229;SDS011;62589;12.568;99.958;2022-08-11T17:17:15;3.80;;;1.30;;
74229;SDS011;62589;12.568;99.958;2022-08-11T17:20:03;1.55;;;0.77;;
74229;SDS011;62589;12.568;99.958;2022-08-11T17:22:35;3.47;;;1.10;;
74229;SDS011;62589;12.568;99.958;2022-08-11T17:25:15;4.38;;;1.17;;
74229;SDS011;62589;12.568;99.958;2022-08-11T17:27:43;4.93;;;1.30;;
74229;SDS011;62589;12.568;99.958;2022-08-11T17:30:12;3.35;;;1.00;;
74229;SDS011;62589;12.568;99.958;2022-08-11T17:32:42;2.80;;;1.23;;
74229;SDS011;62589;12.568;99.958;2022-08-11T17:35:25;4.45;;;1.38;;
74229;SDS011;62589;12.568;99.958;2022-08-11T17:38:17;5.28;;;1.42;;
74229;SDS011;62589;12.568;99.958;2022-08-11T17:40:48;3.50;;;1.27;;
74229;SDS011;62589;12.568;99.958;2022-08-11T17:43:30;4.35;;;1.20;;
74229;SDS011;62589;12.568;99.958;2022-08-11T17:46:09;3.95;;;1.30;;
74229;SDS011;62589;12.568;99.958;2022-08-11T17:48:55;3.63;;;1.02;;
74229;SDS011;62589;12.568;99.958;2022-08-11T17:51:22;3.95;;;1.10;;
74229;SDS011;62589;12.568;99.958;2022-08-11T17:54:01;6.45;;;1.77;;
74229;SDS011;62589;12.568;99.958;2022-08-11T17:56:41;5.55;;;1.15;;
74229;SDS011;62589;12.568;99.958;2022-08-11T17:59:19;5.82;;;1.52;;
74229;SDS011;62589;12.568;99.958;2022-08-11T18:01:59;5.82;;;1.30;;
74229;SDS011;62589;12.568;99.958;2022-08-11T18:04:49;4.60;;;1.48;;
74229;SDS011;62589;12.568;99.958;2022-08-11T18:07:17;4.15;;;1.20;;
74229;SDS011;62589;12.568;99.958;2022-08-11T18:09:58;3.42;;;1.15;;
74229;SDS011;62589;12.568;99.958;2022-08-11T18:12:40;3.63;;;1.17;;
74229;SDS011;62589;12.568;99.958;2022-08-11T18:15:19;4.63;;;1.33;;
74229;SDS011;62589;12.568;99.958;2022-08-11T18:17:57;2.92;;;0.85;;
74229;SDS011;62589;12.568;99.958;2022-08-11T18:20:35;4.40;;;0.90;;
74229;SDS011;62589;12.568;99.958;2022-08-11T18:23:15;2.38;;;0.88;;
74229;SDS011;62589;12.568;99.958;2022-08-11T18:25:56;4.57;;;0.88;;
74229;SDS011;62589;12.568;99.958;2022-08-11T18:28:46;3.35;;;0.80;;
74229;SDS011;62589;12.568;99.958;2022-08-11T18:31:26;3.55;;;1.02;;
74229;SDS011;62589;12.568;99.958;2022-08-11T18:34:09;3.42;;;0.80;;
74229;SDS011;62589;12.568;99.958;2022-08-11T18:39:55;2.47;;;0.90;;
74229;SDS011;62589;12.568;99.958;2022-08-11T18:42:37;5.32;;;1.30;;
74229;SDS011;62589;12.568;99.958;2022-08-11T18:45:18;3.40;;;1.13;;
74229;SDS011;62589;12.568;99.958;2022-08-11T18:47:59;2.80;;;1.10;;
74229;SDS011;62589;12.568;99.958;2022-08-11T18:50:40;3.50;;;1.02;;